createdAt,value
2022-11-30T00:00:04.127Z,5.27
2022-11-30T00:03:19.198Z,5.27
2022-11-30T00:06:28.105Z,5.21
2022-11-30T00:09:36.735Z,5.23
2022-11-30T00:12:51.096Z,5.22
2022-11-30T00:15:52.994Z,5.15
2022-11-30T00:19:08.169Z,5.16
2022-11-30T00:22:23.450Z,5.18
2022-11-30T00:25:38.194Z,5.27
2022-11-30T00:28:48.133Z,5.29
2022-11-30T00:31:56.688Z,5.22
2022-11-30T00:35:11.193Z,5.22
2022-11-30T00:38:13.101Z,5.21
2022-11-30T00:41:29.135Z,5.04
2022-11-30T00:44:37.801Z,5.09
2022-11-30T00:47:46.114Z,5.13
2022-11-30T00:50:54.755Z,5.10
2022-11-30T00:54:09.193Z,5.19
2022-11-30T00:57:11.176Z,5.19
2022-11-30T01:00:27.146Z,5.21
2022-11-30T01:03:43.189Z,5.22
2022-11-30T01:06:52.407Z,5.33
2022-11-30T01:10:00.806Z,5.33
2022-11-30T01:13:10.145Z,5.21
2022-11-30T01:16:30.152Z,5.19
2022-11-30T01:19:45.288Z,5.23
2022-11-30T01:23:02.251Z,5.26
2022-11-30T01:26:11.336Z,5.23
2022-11-30T01:29:20.178Z,5.21
2022-11-30T01:32:35.138Z,5.15
2022-11-30T01:35:36.911Z,5.09
2022-11-30T01:38:56.248Z,5.18
2022-11-30T01:41:58.066Z,5.22
2022-11-30T01:45:19.128Z,5.20
2022-11-30T01:48:27.158Z,5.13
2022-11-30T01:51:42.814Z,5.10
2022-11-30T01:55:00.250Z,5.11
2022-11-30T01:58:21.137Z,5.06
2022-11-30T02:01:22.934Z,5.05
2022-11-30T02:04:41.146Z,5.05
2022-11-30T02:07:43.080Z,5.09
2022-11-30T02:11:02.179Z,5.12
2022-11-30T02:14:28.235Z,5.09
2022-11-30T02:18:04.111Z,5.12
2022-11-30T02:21:21.942Z,5.16
2022-11-30T02:25:00.143Z,5.15
2022-11-30T02:28:31.221Z,5.12
2022-11-30T02:31:51.037Z,5.15
2022-11-30T02:35:03.168Z,5.24
2022-11-30T02:38:20.182Z,5.22
2022-11-30T02:41:28.162Z,5.19
2022-11-30T02:44:36.929Z,5.21
2022-11-30T02:47:55.279Z,5.15
2022-11-30T02:51:10.323Z,5.19
2022-11-30T02:54:25.190Z,5.24
2022-11-30T02:57:33.228Z,5.14
2022-11-30T03:00:48.219Z,5.16
2022-11-30T03:03:50.170Z,5.22
2022-11-30T03:07:05.178Z,5.30
2022-11-30T03:10:20.183Z,5.19
2022-11-30T03:13:22.066Z,5.28
2022-11-30T03:16:37.145Z,5.23
2022-11-30T03:19:39.204Z,5.23
2022-11-30T03:23:01.201Z,5.21
2022-11-30T03:26:04.991Z,5.24
2022-11-30T03:29:20.195Z,5.24
2022-11-30T03:32:22.051Z,5.30
2022-11-30T03:35:37.230Z,5.31
2022-11-30T03:38:46.186Z,5.33
2022-11-30T03:41:54.867Z,5.23
2022-11-30T03:45:03.196Z,5.31
2022-11-30T03:48:18.245Z,5.27
2022-11-30T03:51:27.237Z,5.30
2022-11-30T03:54:35.945Z,5.29
2022-11-30T03:57:44.190Z,5.30
2022-11-30T04:01:09.214Z,5.21
2022-11-30T04:04:11.840Z,5.33
2022-11-30T04:07:26.188Z,5.32
2022-11-30T04:10:35.227Z,5.28
2022-11-30T04:13:50.287Z,5.22
2022-11-30T04:16:52.323Z,5.28
2022-11-30T04:20:07.219Z,5.25
2022-11-30T04:23:15.438Z,5.28
2022-11-30T04:26:31.185Z,5.42
2022-11-30T04:29:46.211Z,5.35
2022-11-30T04:32:54.862Z,5.37
2022-11-30T04:36:06.230Z,5.35
2022-11-30T04:39:21.349Z,5.33
2022-11-30T04:42:23.424Z,5.36
2022-11-30T04:45:38.186Z,5.41
2022-11-30T04:48:40.066Z,5.38
2022-11-30T04:51:55.260Z,5.33
2022-11-30T04:54:57.116Z,5.40
2022-11-30T04:58:13.228Z,5.38
2022-11-30T05:01:15.270Z,5.39
2022-11-30T05:04:30.354Z,5.35
2022-11-30T05:07:35.688Z,5.32
2022-11-30T05:10:52.976Z,5.33
2022-11-30T05:14:01.193Z,5.41
2022-11-30T05:17:09.853Z,5.41
2022-11-30T05:20:18.268Z,5.43
2022-11-30T05:23:40.305Z,5.30
2022-11-30T05:26:55.233Z,5.33
2022-11-30T05:29:57.327Z,5.43
2022-11-30T05:33:14.310Z,5.49
2022-11-30T05:36:16.167Z,5.58
2022-11-30T05:39:31.302Z,5.89
2022-11-30T05:42:40.343Z,5.67
2022-11-30T05:45:55.399Z,5.52
2022-11-30T05:48:57.561Z,5.43
2022-11-30T05:52:12.290Z,5.47
2022-11-30T05:55:21.214Z,5.44
2022-11-30T05:58:36.282Z,5.56
2022-11-30T06:01:44.299Z,5.43
2022-11-30T06:04:52.786Z,5.65
2022-11-30T06:08:07.226Z,5.66
2022-11-30T06:11:17.050Z,5.67
2022-11-30T06:14:25.220Z,5.61
2022-11-30T06:17:33.950Z,5.58
2022-11-30T06:20:42.274Z,5.70
2022-11-30T06:23:57.583Z,5.69
2022-11-30T06:27:06.254Z,5.68
2022-11-30T06:30:22.413Z,5.67
2022-11-30T06:33:37.230Z,5.59
2022-11-30T06:36:45.262Z,5.61
2022-11-30T06:40:09.225Z,5.72
2022-11-30T06:43:18.222Z,5.69
2022-11-30T06:46:26.825Z,5.76
2022-11-30T06:49:35.398Z,5.89
2022-11-30T06:52:50.382Z,5.69
2022-11-30T06:55:52.866Z,5.90
2022-11-30T06:59:07.551Z,5.89
2022-11-30T07:02:21.337Z,5.95
2022-11-30T07:05:32.787Z,5.97
2022-11-30T07:08:41.261Z,6.00
2022-11-30T07:11:49.958Z,5.99
2022-11-30T07:14:59.302Z,6.01
2022-11-30T07:18:15.274Z,6.06
2022-11-30T07:21:24.502Z,6.11
2022-11-30T07:24:41.615Z,6.04
2022-11-30T07:27:49.960Z,6.13
2022-11-30T07:30:58.300Z,6.14
2022-11-30T07:34:09.866Z,6.21
2022-11-30T07:37:18.534Z,6.27
2022-11-30T07:40:33.256Z,6.25
2022-11-30T07:43:35.232Z,6.29
2022-11-30T07:46:50.299Z,6.20
2022-11-30T07:49:58.437Z,6.31
2022-11-30T07:53:13.347Z,6.25
2022-11-30T07:56:23.636Z,6.32
2022-11-30T07:59:32.451Z,6.46
2022-11-30T08:02:41.362Z,6.48
2022-11-30T08:05:56.326Z,6.55
2022-11-30T08:09:07.325Z,6.63
2022-11-30T08:12:16.170Z,6.55
2022-11-30T08:15:30.761Z,6.60
2022-11-30T08:18:49.552Z,6.64
2022-11-30T08:21:51.407Z,6.72
2022-11-30T08:25:14.366Z,6.63
2022-11-30T08:28:22.300Z,6.63
2022-11-30T08:31:36.113Z,6.74
2022-11-30T08:34:51.344Z,6.76
2022-11-30T08:38:00.193Z,6.82
2022-11-30T08:41:09.382Z,6.74
2022-11-30T08:44:36.259Z,6.78
2022-11-30T08:47:44.301Z,8.79
2022-11-30T08:50:53.158Z,8.62
2022-11-30T08:54:01.367Z,8.22
2022-11-30T09:03:47.416Z,8.76
2022-11-30T09:06:56.680Z,9.91
2022-11-30T09:10:08.414Z,9.04
2022-11-30T09:13:17.470Z,8.82
2022-11-30T09:16:27.303Z,9.47
2022-11-30T09:19:36.374Z,8.81
2022-11-30T09:22:53.382Z,8.38
2022-11-30T09:26:18.372Z,7.82
2022-11-30T09:29:27.542Z,7.63
2022-11-30T09:33:02.522Z,7.38
2022-11-30T09:36:07.605Z,7.38
2022-11-30T09:39:22.458Z,7.24
2022-11-30T09:42:38.754Z,7.17
2022-11-30T09:46:02.378Z,7.04
2022-11-30T09:49:20.959Z,7.77
2022-11-30T09:52:42.435Z,7.48
2022-11-30T09:55:45.874Z,7.55
2022-11-30T09:59:08.425Z,7.45
2022-11-30T10:02:17.134Z,7.47
2022-11-30T10:05:52.491Z,7.47
2022-11-30T10:09:12.627Z,7.47
2022-11-30T10:12:38.330Z,7.41
2022-11-30T10:16:07.462Z,7.41
2022-11-30T10:19:52.722Z,7.50
2022-11-30T10:23:19.284Z,7.57
2022-11-30T10:26:43.341Z,7.60
2022-11-30T10:30:02.498Z,7.54
2022-11-30T10:33:21.406Z,7.62
2022-11-30T10:36:43.402Z,7.78
2022-11-30T10:40:04.683Z,7.78
2022-11-30T10:43:24.322Z,7.79
2022-11-30T10:46:38.887Z,7.79
2022-11-30T10:49:55.399Z,7.84
2022-11-30T10:53:10.372Z,9.36
2022-11-30T10:56:20.237Z,10.12
2022-11-30T10:59:40.471Z,11.19
2022-11-30T11:02:50.091Z,10.38
2022-11-30T11:06:09.707Z,9.95
2022-11-30T11:09:33.719Z,9.72
2022-11-30T11:12:56.379Z,10.11
2022-11-30T11:16:14.432Z,11.47
2022-11-30T11:19:30.766Z,10.77
2022-11-30T11:22:54.788Z,9.68
2022-11-30T11:26:04.714Z,9.21
2022-11-30T11:29:31.619Z,8.76
2022-11-30T11:32:40.194Z,9.75
2022-11-30T11:35:52.491Z,9.75
2022-11-30T11:39:08.437Z,9.71
2022-11-30T11:42:22.376Z,9.38
2022-11-30T11:45:44.524Z,8.95
2022-11-30T11:49:06.698Z,8.81
2022-11-30T11:52:25.402Z,8.74
2022-11-30T11:55:27.655Z,8.68
2022-11-30T11:59:02.571Z,8.70
2022-11-30T12:02:29.466Z,8.94
2022-11-30T12:05:59.374Z,8.86
2022-11-30T12:09:18.872Z,8.87
2022-11-30T12:12:34.406Z,8.98
2022-11-30T12:16:03.465Z,8.96
2022-11-30T12:19:35.189Z,9.16
2022-11-30T12:23:15.437Z,9.02
2022-11-30T12:26:46.519Z,9.09
2022-11-30T12:30:15.074Z,8.97
2022-11-30T12:33:51.470Z,8.81
2022-11-30T12:37:18.034Z,8.95
2022-11-30T12:40:52.464Z,9.41
2022-11-30T12:44:09.647Z,8.99
2022-11-30T12:47:46.516Z,8.96
2022-11-30T12:51:13.524Z,9.05
2022-11-30T12:54:43.982Z,9.30
2022-11-30T12:58:14.460Z,9.27
2022-11-30T13:01:45.749Z,9.39
2022-11-30T13:05:09.454Z,9.71
2022-11-30T13:08:28.459Z,9.63
2022-11-30T13:11:40.344Z,9.37
2022-11-30T13:14:52.433Z,9.16
2022-11-30T13:18:03.084Z,8.88
2022-11-30T13:21:26.517Z,9.18
2022-11-30T13:24:51.426Z,9.56
2022-11-30T13:28:24.434Z,9.29
2022-11-30T13:31:43.651Z,9.02
2022-11-30T13:35:24.452Z,8.80
2022-11-30T13:38:42.305Z,8.86
2022-11-30T13:42:22.638Z,8.60
2022-11-30T13:45:42.742Z,8.61
2022-11-30T13:49:27.650Z,8.34
2022-11-30T13:52:49.910Z,8.24
2022-11-30T13:56:09.441Z,8.24
2022-11-30T13:59:34.297Z,8.33
2022-11-30T14:02:59.438Z,8.60
2022-11-30T14:06:24.520Z,8.86
2022-11-30T14:10:07.245Z,8.56
2022-11-30T14:13:38.670Z,8.92
2022-11-30T14:16:56.494Z,8.76
2022-11-30T14:20:16.576Z,8.35
2022-11-30T14:23:36.502Z,8.06
2022-11-30T14:26:53.079Z,8.15
2022-11-30T14:30:22.530Z,7.98
2022-11-30T14:33:35.781Z,7.89
2022-11-30T14:36:58.048Z,7.85
2022-11-30T14:40:18.471Z,7.80
2022-11-30T14:43:21.295Z,7.56
2022-11-30T14:46:38.566Z,7.71
2022-11-30T14:49:47.702Z,7.69
2022-11-30T14:53:32.557Z,7.64
2022-11-30T14:56:51.550Z,7.79
2022-11-30T15:00:00.307Z,7.75
2022-11-30T15:03:12.499Z,7.71
2022-11-30T15:06:25.873Z,7.66
2022-11-30T15:09:38.540Z,7.66
2022-11-30T15:12:47.276Z,7.64
2022-11-30T15:16:03.676Z,7.69
2022-11-30T15:19:32.602Z,7.62
2022-11-30T15:22:47.502Z,7.65
2022-11-30T15:26:08.578Z,7.62
2022-11-30T15:29:31.363Z,7.61
2022-11-30T15:32:39.474Z,7.61
2022-11-30T15:36:15.988Z,7.60
2022-11-30T15:39:28.781Z,7.65
2022-11-30T15:42:46.550Z,7.63
2022-11-30T15:45:55.137Z,7.62
2022-11-30T15:49:22.729Z,7.61
2022-11-30T15:52:33.654Z,7.60
2022-11-30T15:55:51.756Z,7.61
2022-11-30T15:59:25.758Z,7.58
2022-11-30T16:02:43.545Z,7.62
2022-11-30T16:05:56.812Z,7.70
2022-11-30T16:09:26.587Z,7.66
2022-11-30T16:12:41.570Z,7.70
2022-11-30T16:15:51.723Z,7.66
2022-11-30T16:19:00.495Z,7.67
2022-11-30T16:22:13.109Z,7.62
2022-11-30T16:25:24.462Z,7.59
2022-11-30T16:28:33.274Z,7.55
2022-11-30T16:31:48.510Z,7.39
2022-11-30T16:34:57.181Z,7.58
2022-11-30T16:38:05.531Z,7.62
2022-11-30T16:41:22.443Z,7.67
2022-11-30T16:44:30.511Z,7.72
2022-11-30T16:47:45.536Z,7.71
2022-11-30T16:50:47.334Z,7.68
2022-11-30T16:54:03.496Z,7.70
2022-11-30T16:57:18.511Z,7.71
2022-11-30T17:00:27.714Z,7.68
2022-11-30T17:03:39.501Z,7.72
2022-11-30T17:07:00.732Z,7.70
2022-11-30T17:10:12.502Z,7.65
2022-11-30T17:13:21.682Z,7.63
2022-11-30T17:16:36.645Z,7.64
2022-11-30T17:19:38.611Z,7.62
2022-11-30T17:22:53.613Z,7.58
2022-11-30T17:26:08.577Z,7.60
2022-11-30T17:29:17.198Z,7.61
2022-11-30T17:32:25.689Z,7.62
2022-11-30T17:35:44.701Z,7.63
2022-11-30T17:38:53.646Z,7.64
2022-11-30T17:42:08.506Z,7.65
2022-11-30T17:45:10.737Z,7.70
2022-11-30T17:48:25.586Z,7.67
2022-11-30T17:51:33.576Z,7.64
2022-11-30T17:54:48.856Z,7.61
2022-11-30T17:57:57.558Z,7.59
2022-11-30T18:01:07.951Z,7.66
2022-11-30T18:04:16.594Z,7.64
2022-11-30T18:07:25.242Z,7.66
2022-11-30T18:10:33.595Z,7.63
2022-11-30T18:13:42.922Z,7.63
2022-11-30T18:16:51.643Z,7.70
2022-11-30T18:20:00.651Z,7.66
2022-11-30T18:23:15.576Z,7.63
2022-11-30T18:26:30.903Z,7.56
2022-11-30T18:29:39.546Z,7.54
2022-11-30T18:32:48.393Z,7.55
2022-11-30T18:35:56.534Z,7.50
2022-11-30T18:39:11.614Z,7.47
2022-11-30T18:42:26.571Z,7.51
2022-11-30T18:45:34.577Z,7.44
2022-11-30T18:48:49.556Z,7.39
2022-11-30T18:52:04.558Z,7.36
2022-11-30T18:55:19.530Z,7.39
2022-11-30T18:58:27.661Z,7.40
2022-11-30T19:01:36.380Z,7.45
2022-11-30T19:04:51.602Z,7.45
2022-11-30T19:07:53.584Z,7.46
2022-11-30T19:11:11.619Z,7.44
2022-11-30T19:14:21.586Z,7.45
2022-11-30T19:17:37.578Z,7.42
2022-11-30T19:20:40.541Z,7.41
2022-11-30T19:23:56.579Z,7.38
2022-11-30T19:27:04.838Z,7.42
2022-11-30T19:30:20.637Z,7.40
2022-11-30T19:33:29.614Z,7.45
2022-11-30T19:36:38.374Z,7.41
2022-11-30T19:39:46.692Z,7.37
2022-11-30T19:42:55.539Z,7.32
2022-11-30T19:46:10.762Z,7.30
2022-11-30T19:49:25.615Z,7.29
2022-11-30T19:52:40.770Z,7.29
2022-11-30T19:55:48.580Z,7.23
2022-11-30T19:59:04.073Z,7.21
2022-11-30T20:02:19.732Z,7.17
2022-11-30T20:05:28.602Z,7.15
2022-11-30T20:08:44.925Z,7.11
2022-11-30T20:11:46.734Z,7.08
2022-11-30T20:15:01.603Z,7.10
2022-11-30T20:18:10.622Z,7.02
2022-11-30T20:21:21.714Z,7.03
2022-11-30T20:24:37.625Z,6.99
2022-11-30T20:27:52.640Z,7.00
2022-11-30T20:31:09.640Z,6.91
2022-11-30T20:34:18.748Z,6.99
2022-11-30T20:37:33.633Z,6.96
2022-11-30T20:40:35.738Z,6.94
2022-11-30T20:43:51.585Z,6.92
2022-11-30T20:46:53.610Z,6.97
2022-11-30T20:50:10.643Z,7.01
2022-11-30T20:53:25.635Z,7.01
2022-11-30T20:56:27.486Z,6.96
2022-11-30T20:59:42.594Z,6.95
2022-11-30T21:02:51.763Z,6.99
2022-11-30T21:06:06.650Z,6.99
2022-11-30T21:09:10.371Z,6.96
2022-11-30T21:12:25.854Z,6.93
2022-11-30T21:15:34.686Z,6.88
2022-11-30T21:18:51.633Z,6.87
2022-11-30T21:22:00.607Z,6.86
2022-11-30T21:25:08.673Z,6.86
2022-11-30T21:28:36.367Z,6.87
2022-11-30T21:31:46.446Z,6.86
2022-11-30T21:35:01.766Z,6.82
2022-11-30T21:38:03.638Z,6.74
2022-11-30T21:41:19.675Z,6.77
2022-11-30T21:44:27.654Z,6.77
2022-11-30T21:47:36.809Z,6.77
2022-11-30T21:50:45.643Z,6.78
2022-11-30T21:54:03.737Z,6.78
2022-11-30T21:57:05.585Z,6.78
2022-11-30T22:00:20.773Z,6.80
2022-11-30T22:03:22.638Z,6.74
2022-11-30T22:06:38.680Z,6.81
2022-11-30T22:09:48.848Z,6.78
2022-11-30T22:12:57.784Z,6.78
2022-11-30T22:16:15.705Z,6.80
2022-11-30T22:19:24.344Z,6.82
2022-11-30T22:22:32.682Z,6.88
2022-11-30T22:25:47.946Z,6.89
2022-11-30T22:29:07.929Z,6.86
2022-11-30T22:32:22.675Z,6.86
2022-11-30T22:35:24.558Z,6.87
2022-11-30T22:38:40.685Z,6.83
2022-11-30T22:41:55.781Z,6.80
2022-11-30T22:45:10.775Z,6.81
2022-11-30T22:48:12.610Z,6.82
2022-11-30T22:51:30.674Z,6.81
2022-11-30T22:54:39.344Z,6.79
2022-11-30T22:57:47.705Z,6.77
2022-11-30T23:00:56.587Z,6.75
2022-11-30T23:04:17.832Z,6.75
2022-11-30T23:07:31.725Z,6.72
2022-11-30T23:10:40.668Z,6.65
2022-11-30T23:13:49.958Z,6.66
2022-11-30T23:16:58.637Z,6.63
2022-11-30T23:20:14.691Z,6.62
2022-11-30T23:23:16.547Z,6.60
2022-11-30T23:26:41.748Z,6.58
2022-11-30T23:29:50.568Z,6.54
2022-11-30T23:33:05.698Z,6.53
2022-11-30T23:36:15.670Z,6.46
2022-11-30T23:39:24.315Z,6.44
2022-11-30T23:42:32.702Z,6.42
2022-11-30T23:45:41.811Z,6.32
2022-11-30T23:48:50.682Z,6.30
2022-11-30T23:52:07.714Z,6.24
2022-11-30T23:55:09.927Z,6.17
2022-11-30T23:58:26.685Z,6.11
